Time;durP1;ratioP1;P1;durP2;ratioP2;P2;SDS_P1;SDS_P2;PMS_P1;PMS_P2;Temp;Humidity;BMP_temperature;BMP_pressure;BME280_temperature;BME280_humidity;BME280_pressure;Samples;Min_cycle;Max_cycle;Signal;HPM_P1;HPM_P2
2021/07/06 00:02:18;;;;;;;3.63;2.60;;;21.10;73.80;;;;;;5090491;28;20067;-74
2021/07/06 00:04:45;;;;;;;2.40;2.20;;;21.10;73.70;;;;;;5075590;28;20398;-76
2021/07/06 00:07:12;;;;;;;3.47;2.47;;;21.10;73.70;;;;;;5075163;28;20036;-75
2021/07/06 00:09:37;;;;;;;2.53;2.33;;;21.10;73.70;;;;;;5075122;28;20051;-74
2021/07/06 00:12:04;;;;;;;2.72;2.47;;;21.10;73.80;;;;;;5074695;28;20041;-75
2021/07/06 00:14:30;;;;;;;2.40;2.20;;;21.10;73.70;;;;;;5075198;28;20052;-75
2021/07/06 00:16:56;;;;;;;2.88;2.08;;;21.10;73.70;;;;;;5074935;28;20040;-75
2021/07/06 00:19:22;;;;;;;3.05;2.30;;;21.10;73.70;;;;;;5075078;28;20356;-76
2021/07/06 00:21:47;;;;;;;2.95;2.38;;;21.10;73.70;;;;;;5075013;28;20056;-76
2021/07/06 00:24:13;;;;;;;2.70;2.33;;;21.10;73.70;;;;;;5075202;28;20439;-74
2021/07/06 00:26:39;;;;;;;2.63;2.22;;;21.00;74.20;;;;;;5075092;28;20049;-74
2021/07/06 00:29:05;;;;;;;2.65;2.35;;;21.00;73.60;;;;;;5074216;28;20045;-75
2021/07/06 00:31:31;;;;;;;2.88;2.28;;;21.00;73.60;;;;;;5078994;28;20051;-76
2021/07/06 00:33:56;;;;;;;2.10;2.00;;;21.00;73.70;;;;;;5095186;28;20105;-76
2021/07/06 00:36:22;;;;;;;2.95;2.38;;;21.00;73.60;;;;;;5095132;28;20059;-75
2021/07/06 00:38:48;;;;;;;3.00;2.80;;;21.00;74.20;;;;;;5095133;28;20044;-75
2021/07/06 00:41:14;;;;;;;2.70;2.50;;;21.00;73.60;;;;;;5095349;28;20047;-74
2021/07/06 00:43:40;;;;;;;3.10;2.70;;;21.00;73.70;;;;;;5095168;28;20534;-74
2021/07/06 00:46:06;;;;;;;2.97;2.22;;;21.00;73.70;;;;;;5095362;28;20048;-74
2021/07/06 00:48:33;;;;;;;4.40;2.42;;;21.00;73.70;;;;;;5095306;28;20054;-75
2021/07/06 00:50:59;;;;;;;2.60;2.33;;;21.00;73.60;;;;;;5094776;28;20036;-75
2021/07/06 00:53:25;;;;;;;2.45;2.25;;;21.00;73.70;;;;;;5094747;28;20044;-74
2021/07/06 00:55:53;;;;;;;2.70;2.42;;;21.00;73.70;;;;;;5080582;28;20040;-75
2021/07/06 00:58:21;;;;;;;2.75;2.53;;;21.00;73.70;;;;;;5083869;28;20451;-74
2021/07/06 01:00:48;;;;;;;3.03;2.72;;;21.00;73.60;;;;;;5094610;28;20036;-74
2021/07/06 01:03:14;;;;;;;3.10;2.80;;;21.00;73.70;;;;;;5094732;28;20046;-76
2021/07/06 01:05:39;;;;;;;3.10;2.42;;;21.00;73.60;;;;;;5094668;28;20040;-74
2021/07/06 01:08:06;;;;;;;3.50;2.30;;;21.00;73.60;;;;;;5095156;28;20048;-74
2021/07/06 01:10:32;;;;;;;2.63;2.30;;;21.00;73.60;;;;;;5095060;28;20076;-76
2021/07/06 01:12:58;;;;;;;2.30;2.10;;;21.00;73.60;;;;;;5094460;28;20060;-75
2021/07/06 01:15:29;;;;;;;2.90;2.38;;;21.00;73.60;;;;;;5094539;28;20052;-75
2021/07/06 01:18:05;;;;;;;2.47;2.28;;;21.00;73.60;;;;;;5094240;28;20367;-76
2021/07/06 01:20:32;;;;;;;3.15;2.65;;;21.00;73.60;;;;;;5094993;28;20052;-74
2021/07/06 01:22:59;;;;;;;3.05;2.58;;;21.00;73.60;;;;;;5094815;28;20059;-76
2021/07/06 01:25:25;;;;;;;2.85;2.38;;;21.00;73.60;;;;;;5084278;28;20040;-76
2021/07/06 01:27:51;;;;;;;3.08;2.53;;;20.90;73.60;;;;;;5074223;28;20120;-75
2021/07/06 01:30:18;;;;;;;2.33;2.13;;;21.00;73.60;;;;;;5075241;28;20112;-76
2021/07/06 01:32:45;;;;;;;2.55;2.33;;;20.90;73.60;;;;;;5074365;28;20048;-75
2021/07/06 01:35:13;;;;;;;3.15;2.50;;;20.90;73.50;;;;;;5075035;28;20194;-75
2021/07/06 01:37:44;;;;;;;3.20;2.38;;;20.90;73.60;;;;;;5074646;28;20060;-75
2021/07/06 01:40:11;;;;;;;2.30;2.10;;;21.00;73.60;;;;;;5075163;28;20040;-75
2021/07/06 01:42:37;;;;;;;2.78;2.38;;;20.90;73.60;;;;;;5093431;28;20044;-75
2021/07/06 01:45:09;;;;;;;3.78;2.97;;;20.90;73.60;;;;;;5077912;28;20059;-75
2021/07/06 01:47:40;;;;;;;3.20;2.70;;;21.00;73.70;;;;;;5093767;28;20040;-75
2021/07/06 01:50:09;;;;;;;2.50;2.30;;;21.00;73.70;;;;;;5077954;28;20056;-74
2021/07/06 01:52:39;;;;;;;2.88;2.38;;;20.90;73.60;;;;;;5077663;28;20044;-76
2021/07/06 01:55:09;;;;;;;3.25;2.55;;;20.90;73.60;;;;;;5087033;28;20520;-75
2021/07/06 01:57:35;;;;;;;3.15;2.55;;;20.90;73.60;;;;;;5098118;28;20463;-75
2021/07/06 02:00:04;;;;;;;3.00;2.70;;;20.90;73.60;;;;;;5097721;28;20071;-76
2021/07/06 02:02:30;;;;;;;2.55;2.35;;;20.90;73.60;;;;;;5097905;28;20040;-76
2021/07/06 02:04:56;;;;;;;2.90;2.30;;;20.90;73.60;;;;;;5097801;28;20047;-75
2021/07/06 02:07:21;;;;;;;2.55;2.35;;;20.90;73.60;;;;;;5097644;28;20039;-76
2021/07/06 02:09:47;;;;;;;2.72;2.53;;;20.90;73.60;;;;;;5097649;28;20044;-76
2021/07/06 02:12:13;;;;;;;2.72;2.47;;;20.90;73.60;;;;;;5097151;28;20416;-75
2021/07/06 02:14:39;;;;;;;3.13;2.25;;;20.90;73.60;;;;;;5097693;28;20412;-75
2021/07/06 02:17:05;;;;;;;2.97;2.67;;;20.90;73.70;;;;;;5098221;28;20047;-75
2021/07/06 02:19:30;;;;;;;2.90;2.60;;;20.90;73.60;;;;;;5097549;28;20119;-75
2021/07/06 02:21:56;;;;;;;2.83;2.47;;;20.90;73.60;;;;;;5097594;28;20503;-74
2021/07/06 02:24:22;;;;;;;2.70;2.50;;;20.90;73.60;;;;;;5109699;28;20044;-75
2021/07/06 02:26:48;;;;;;;3.08;2.75;;;20.90;73.60;;;;;;5077578;28;20044;-76
2021/07/06 02:29:13;;;;;;;2.80;2.55;;;20.90;73.60;;;;;;5077220;28;20076;-75
2021/07/06 02:31:39;;;;;;;2.63;2.42;;;20.90;73.60;;;;;;5076902;28;20101;-75
2021/07/06 02:34:05;;;;;;;2.95;2.60;;;20.90;73.60;;;;;;5077150;28;20068;-76
2021/07/06 02:36:31;;;;;;;2.70;2.50;;;20.90;73.60;;;;;;5076960;28;20125;-76
2021/07/06 02:38:57;;;;;;;2.38;2.17;;;20.90;73.60;;;;;;5076486;28;20075;-75
2021/07/06 02:41:22;;;;;;;2.85;2.35;;;20.90;74.20;;;;;;5077108;28;20098;-74
2021/07/06 02:43:48;;;;;;;2.45;2.25;;;20.90;73.60;;;;;;5076935;28;20051;-75
2021/07/06 02:46:14;;;;;;;2.80;2.60;;;20.90;73.60;;;;;;5076795;28;20056;-75
2021/07/06 02:48:40;;;;;;;3.13;2.83;;;20.90;73.60;;;;;;5076797;28;20052;-76
2021/07/06 02:51:06;;;;;;;2.90;2.60;;;20.90;73.60;;;;;;5076831;28;20149;-75
2021/07/06 02:53:31;;;;;;;3.85;2.42;;;20.90;73.60;;;;;;5076268;28;20048;-75
2021/07/06 02:55:57;;;;;;;2.88;2.40;;;20.80;73.60;;;;;;5094852;28;20101;-74
2021/07/06 02:58:23;;;;;;;2.95;2.40;;;20.80;73.60;;;;;;5096584;28;20064;-76
2021/07/06 03:00:50;;;;;;;2.75;2.50;;;20.80;73.60;;;;;;5097370;28;20122;-75
2021/07/06 03:03:16;;;;;;;2.60;2.40;;;20.90;73.60;;;;;;5097330;28;20115;-76
2021/07/06 03:05:42;;;;;;;2.70;2.50;;;20.80;73.60;;;;;;5112268;28;20135;-74
2021/07/06 03:08:08;;;;;;;3.08;2.78;;;20.80;73.60;;;;;;5096047;28;20071;-76
2021/07/06 03:10:37;;;;;;;2.67;2.28;;;20.80;73.60;;;;;;5096391;28;20055;-75
2021/07/06 03:13:04;;;;;;;2.50;2.33;;;20.80;73.60;;;;;;5096330;28;20475;-75
2021/07/06 03:15:32;;;;;;;2.95;2.47;;;20.80;73.60;;;;;;5096304;28;20097;-76
2021/07/06 03:18:00;;;;;;;2.50;2.30;;;20.80;73.60;;;;;;5095914;28;20036;-74
2021/07/06 03:20:27;;;;;;;2.78;2.58;;;20.80;73.60;;;;;;5096463;28;20114;-76
2021/07/06 03:22:54;;;;;;;3.20;2.83;;;20.80;73.60;;;;;;5096919;28;20123;-76
2021/07/06 03:25:22;;;;;;;3.75;2.70;;;20.80;73.60;;;;;;5082257;28;20055;-74
2021/07/06 03:27:48;;;;;;;2.97;2.70;;;20.80;73.60;;;;;;5075943;28;20097;-75
2021/07/06 03:30:21;;;;;;;2.70;2.50;;;20.80;73.60;;;;;;5076092;28;20109;-76
2021/07/06 03:32:47;;;;;;;2.97;2.72;;;20.80;73.50;;;;;;5075647;28;20048;-74
2021/07/06 03:35:13;;;;;;;2.80;2.55;;;20.80;73.60;;;;;;5075766;28;20052;-76
2021/07/06 03:37:39;;;;;;;2.90;2.45;;;20.80;73.60;;;;;;5074571;28;20045;-75
2021/07/06 03:40:07;;;;;;;2.72;2.50;;;20.80;73.60;;;;;;5075528;28;20068;-76
2021/07/06 03:42:33;;;;;;;2.72;2.40;;;20.80;73.60;;;;;;5075564;28;20511;-75
2021/07/06 03:44:59;;;;;;;2.50;2.30;;;20.80;73.60;;;;;;5075652;28;20071;-75
2021/07/06 03:47:25;;;;;;;3.28;2.40;;;20.80;73.60;;;;;;5075531;28;20037;-75
2021/07/06 03:49:51;;;;;;;2.30;2.10;;;20.80;73.60;;;;;;5075461;28;20466;-76
2021/07/06 03:52:17;;;;;;;2.47;2.28;;;20.80;73.60;;;;;;5075503;28;20036;-76
2021/07/06 03:54:43;;;;;;;2.42;2.22;;;20.80;73.60;;;;;;5083031;28;20044;-76
2021/07/06 03:57:08;;;;;;;3.00;2.35;;;20.80;73.70;;;;;;5095733;28;20431;-75
2021/07/06 03:59:34;;;;;;;2.70;2.50;;;20.80;73.60;;;;;;5095592;28;20495;-77
2021/07/06 04:02:00;;;;;;;3.03;2.60;;;20.80;73.60;;;;;;5085976;28;20063;-75
2021/07/06 04:04:26;;;;;;;2.45;2.25;;;20.80;73.60;;;;;;5074188;28;20063;-75
2021/07/06 04:06:52;;;;;;;2.47;2.10;;;20.80;73.70;;;;;;5075308;28;20036;-75
2021/07/06 04:09:18;;;;;;;2.30;2.10;;;20.80;73.60;;;;;;5074941;28;20095;-76
2021/07/06 04:11:44;;;;;;;2.47;2.28;;;20.80;73.70;;;;;;5075863;28;20048;-76
2021/07/06 04:14:10;;;;;;;2.70;2.13;;;20.80;73.70;;;;;;5075117;28;20054;-76
2021/07/06 04:16:37;;;;;;;2.28;2.08;;;20.80;73.70;;;;;;5075311;28;20045;-75
2021/07/06 04:19:06;;;;;;;2.83;2.08;;;20.80;73.70;;;;;;5075511;28;20041;-75
2021/07/06 04:21:33;;;;;;;2.00;1.90;;;20.80;73.70;;;;;;5075303;28;20041;-74
2021/07/06 04:23:59;;;;;;;2.55;2.35;;;20.80;73.70;;;;;;5075214;28;20049;-75
2021/07/06 04:26:25;;;;;;;2.30;2.10;;;20.80;73.80;;;;;;5075004;28;20041;-75
2021/07/06 04:28:51;;;;;;;2.47;2.22;;;20.80;73.80;;;;;;5075084;28;20462;-75
2021/07/06 04:31:16;;;;;;;2.60;2.40;;;20.80;73.80;;;;;;5077068;28;20056;-75
2021/07/06 04:33:42;;;;;;;2.70;2.40;;;20.80;73.80;;;;;;5095037;28;20518;-75
2021/07/06 04:36:08;;;;;;;2.17;1.98;;;20.80;73.80;;;;;;5095661;28;20112;-75
2021/07/06 04:38:34;;;;;;;1.98;1.80;;;20.80;73.80;;;;;;5094994;28;20359;-76
2021/07/06 04:41:00;;;;;;;2.45;2.25;;;20.80;73.80;;;;;;5095453;28;20346;-76
2021/07/06 04:43:25;;;;;;;2.40;2.17;;;20.80;73.80;;;;;;5095345;28;20040;-75
2021/07/06 04:45:51;;;;;;;2.30;1.88;;;20.80;73.80;;;;;;5095075;28;20082;-76
2021/07/06 04:48:17;;;;;;;2.20;2.00;;;20.80;73.80;;;;;;5095031;28;20044;-76
2021/07/06 04:50:43;;;;;;;2.08;1.98;;;20.80;73.80;;;;;;5078133;28;20047;-75
2021/07/06 04:53:09;;;;;;;3.28;1.88;;;20.80;73.80;;;;;;5074745;28;20044;-74
2021/07/06 04:55:38;;;;;;;2.80;2.13;;;20.70;74.00;;;;;;5087036;28;20036;-73
2021/07/06 04:58:04;;;;;;;2.45;2.25;;;20.80;74.10;;;;;;5074777;28;20127;-73
2021/07/06 05:00:30;;;;;;;2.13;2.00;;;20.70;74.00;;;;;;5083935;28;20055;-72
2021/07/06 05:02:57;;;;;;;2.13;1.92;;;20.70;74.10;;;;;;5094684;28;20113;-70
2021/07/06 05:05:25;;;;;;;2.35;2.15;;;20.80;74.20;;;;;;5094789;28;20050;-73
2021/07/06 05:07:52;;;;;;;10.02;3.88;;;20.80;74.30;;;;;;5094760;28;20043;-72
2021/07/06 05:10:19;;;;;;;5.70;4.05;;;20.80;74.70;;;;;;5094721;28;20063;-74
2021/07/06 05:12:45;;;;;;;7.68;4.38;;;20.80;75.20;;;;;;5094603;28;20059;-73
2021/07/06 05:15:10;;;;;;;6.90;4.18;;;20.80;75.90;;;;;;5095613;28;20106;-71
2021/07/06 05:17:36;;;;;;;4.78;3.97;;;20.70;76.20;;;;;;5097491;28;20054;-69
2021/07/06 05:20:04;;;;;;;4.78;3.63;;;20.70;76.70;;;;;;5098924;28;20055;-70
2021/07/06 05:22:30;;;;;;;4.50;3.38;;;20.70;76.70;;;;;;5098713;28;20048;-69
2021/07/06 05:24:55;;;;;;;8.10;3.47;;;20.60;76.80;;;;;;5098574;28;20036;-69
2021/07/06 05:27:21;;;;;;;5.47;3.20;;;20.70;76.90;;;;;;5098537;28;20101;-70
2021/07/06 05:29:47;;;;;;;3.67;3.15;;;20.60;76.80;;;;;;5098418;28;20374;-69
2021/07/06 05:32:19;;;;;;;4.18;2.78;;;20.60;76.80;;;;;;5098527;28;20044;-69
2021/07/06 05:34:45;;;;;;;4.93;2.63;;;20.60;76.80;;;;;;5098451;28;20043;-70
2021/07/06 05:37:11;;;;;;;4.68;2.20;;;20.50;77.00;;;;;;5098102;28;20123;-70
2021/07/06 05:39:37;;;;;;;5.57;2.53;;;20.50;77.10;;;;;;5098445;28;20119;-69
2021/07/06 05:42:05;;;;;;;6.30;2.40;;;20.50;77.20;;;;;;5079063;28;20053;-69
2021/07/06 05:44:33;;;;;;;6.90;2.28;;;20.50;77.20;;;;;;5077384;28;20079;-69
2021/07/06 05:47:01;;;;;;;3.08;2.05;;;20.50;77.20;;;;;;5077479;28;20048;-70
2021/07/06 05:49:26;;;;;;;4.43;1.90;;;20.50;77.10;;;;;;5077658;28;20056;-70
2021/07/06 05:51:52;;;;;;;4.45;2.50;;;20.50;77.10;;;;;;5077018;28;20044;-70
2021/07/06 05:54:18;;;;;;;3.40;2.15;;;20.50;77.10;;;;;;5077536;28;20044;-70
2021/07/06 05:56:44;;;;;;;6.88;2.28;;;20.50;77.20;;;;;;5077667;28;20040;-71
2021/07/06 05:59:09;;;;;;;6.88;2.05;;;20.50;77.20;;;;;;5077715;28;20106;-70
2021/07/06 06:01:35;;;;;;;5.32;1.70;;;20.40;77.30;;;;;;5078079;28;20055;-70
2021/07/06 06:04:02;;;;;;;4.10;1.95;;;20.50;77.40;;;;;;5077551;28;20068;-71
2021/07/06 06:06:28;;;;;;;4.53;1.75;;;20.40;77.50;;;;;;5077261;28;20351;-70
2021/07/06 06:08:54;;;;;;;4.43;1.63;;;20.40;77.60;;;;;;5077309;28;20045;-70
2021/07/06 06:11:21;;;;;;;6.55;1.63;;;20.50;77.60;;;;;;5077602;28;20045;-69
2021/07/06 06:13:47;;;;;;;4.80;1.67;;;20.50;77.60;;;;;;5077236;28;20108;-71
2021/07/06 06:16:12;;;;;;;11.13;1.75;;;20.40;77.70;;;;;;5077068;28;20055;-71
2021/07/06 06:18:38;;;;;;;6.03;1.92;;;20.50;77.80;;;;;;5077294;28;20124;-72
2021/07/06 06:21:04;;;;;;;3.00;1.52;;;20.50;77.80;;;;;;5077052;28;20101;-72
2021/07/06 06:23:30;;;;;;;3.70;1.60;;;20.40;77.80;;;;;;5077221;28;20124;-76
2021/07/06 06:25:56;;;;;;;5.70;2.30;;;20.40;77.90;;;;;;5079728;28;20043;-72
2021/07/06 06:28:22;;;;;;;4.70;1.30;;;20.40;78.10;;;;;;5096443;28;20059;-70
2021/07/06 06:30:48;;;;;;;4.10;1.35;;;20.40;78.30;;;;;;5097394;28;20043;-70
2021/07/06 06:33:14;;;;;;;4.70;1.50;;;20.40;78.40;;;;;;5096529;28;20091;-70
2021/07/06 06:35:41;;;;;;;2.60;1.50;;;20.40;78.30;;;;;;5097130;28;20047;-73
2021/07/06 06:38:08;;;;;;;5.43;1.42;;;20.40;78.30;;;;;;5097332;28;20056;-70
2021/07/06 06:40:34;;;;;;;4.95;1.60;;;20.40;78.40;;;;;;5090498;28;20044;-71
2021/07/06 06:43:00;;;;;;;5.25;1.58;;;20.30;78.50;;;;;;5076416;28;20047;-71
2021/07/06 06:45:30;;;;;;;2.47;1.38;;;20.30;78.50;;;;;;5076611;28;20071;-70
2021/07/06 06:47:59;;;;;;;4.80;1.60;;;20.40;78.50;;;;;;5076819;28;20044;-70
2021/07/06 06:50:25;;;;;;;3.80;1.60;;;20.40;78.40;;;;;;5076812;28;20049;-70
2021/07/06 06:52:51;;;;;;;2.53;1.38;;;20.40;78.40;;;;;;5076617;28;20464;-70
2021/07/06 06:55:16;;;;;;;5.55;1.42;;;20.40;78.30;;;;;;5076407;28;20040;-71
2021/07/06 06:57:43;;;;;;;4.22;1.63;;;20.40;78.20;;;;;;5085976;28;20126;-72
2021/07/06 07:00:10;;;;;;;3.38;1.38;;;20.40;78.30;;;;;;5097358;28;20126;-72
2021/07/06 07:02:38;;;;;;;2.10;1.17;;;20.40;78.30;;;;;;5096796;28;20036;-71
2021/07/06 07:05:05;;;;;;;4.60;1.33;;;20.40;78.20;;;;;;5090577;28;20213;-77
2021/07/06 07:07:31;;;;;;;5.10;1.60;;;20.40;78.30;;;;;;5096428;28;20047;-77
2021/07/06 07:09:57;;;;;;;2.13;1.30;;;20.40;78.40;;;;;;5096121;28;20375;-72
2021/07/06 07:12:23;;;;;;;3.10;1.55;;;20.40;78.50;;;;;;5095817;28;20105;-72
2021/07/06 07:14:49;;;;;;;4.82;1.20;;;20.40;79.20;;;;;;5096125;28;20079;-71
2021/07/06 07:17:15;;;;;;;6.53;1.52;;;20.40;78.70;;;;;;5096014;28;20405;-72
2021/07/06 07:19:41;;;;;;;14.70;2.78;;;20.40;78.70;;;;;;5096525;28;20044;-71
2021/07/06 07:22:07;;;;;;;11.68;2.00;;;20.40;78.60;;;;;;5096681;28;20051;-72
2021/07/06 07:24:34;;;;;;;8.80;1.92;;;20.40;78.50;;;;;;5096251;28;20047;-71
2021/07/06 07:27:00;;;;;;;5.30;1.85;;;20.40;78.50;;;;;;5095999;28;20052;-72
2021/07/06 07:29:26;;;;;;;9.05;1.83;;;20.50;78.40;;;;;;5096042;28;20128;-72
2021/07/06 07:31:53;;;;;;;6.93;1.67;;;20.50;78.30;;;;;;5095624;28;20054;-72
2021/07/06 07:34:18;;;;;;;5.28;1.63;;;20.50;78.30;;;;;;5096061;28;20481;-72
2021/07/06 07:36:46;;;;;;;7.25;1.80;;;20.50;78.20;;;;;;5095560;28;20087;-72
2021/07/06 07:39:12;;;;;;;5.47;1.45;;;20.50;78.10;;;;;;5096093;28;20055;-72
2021/07/06 07:41:38;;;;;;;3.75;1.73;;;20.50;78.10;;;;;;5095660;28;20048;-72
2021/07/06 07:44:04;;;;;;;6.35;1.73;;;20.60;78.10;;;;;;5095846;28;20071;-72
2021/07/06 07:46:30;;;;;;;11.05;1.63;;;20.60;78.10;;;;;;5095863;28;20040;-72
2021/07/06 07:48:56;;;;;;;6.95;1.73;;;20.60;78.10;;;;;;5096027;28;20552;-72
2021/07/06 07:51:22;;;;;;;6.05;2.03;;;20.70;78.10;;;;;;5096038;28;20036;-72
2021/07/06 07:53:48;;;;;;;8.18;1.63;;;20.70;78.00;;;;;;5095583;28;20044;-72
2021/07/06 07:56:14;;;;;;;5.20;1.58;;;20.70;77.90;;;;;;5095526;28;20059;-71
2021/07/06 07:58:40;;;;;;;8.02;2.08;;;20.70;77.90;;;;;;5095800;28;20048;-72
2021/07/06 08:01:06;;;;;;;7.03;1.42;;;20.70;77.80;;;;;;5095672;28;20058;-71
2021/07/06 08:03:32;;;;;;;5.82;1.45;;;20.80;77.80;;;;;;5095835;28;20428;-72
2021/07/06 08:06:00;;;;;;;6.13;1.80;;;20.80;77.80;;;;;;5095527;28;20123;-72
2021/07/06 08:08:26;;;;;;;10.18;2.10;;;20.80;77.80;;;;;;5095909;28;20044;-72
2021/07/06 08:10:52;;;;;;;11.48;2.33;;;20.80;77.60;;;;;;5095468;28;20139;-71
2021/07/06 08:13:23;;;;;;;13.68;2.72;;;20.80;77.50;;;;;;5095288;28;20107;-72
2021/07/06 08:15:50;;;;;;;11.20;2.08;;;20.80;77.50;;;;;;5095326;28;20329;-72
2021/07/06 08:18:17;;;;;;;7.65;1.90;;;20.80;77.50;;;;;;5095499;28;20040;-72
2021/07/06 08:20:43;;;;;;;11.13;1.80;;;20.90;77.50;;;;;;5095612;28;20040;-74
2021/07/06 08:23:09;;;;;;;10.68;2.33;;;20.90;77.40;;;;;;5095045;28;20044;-72
2021/07/06 08:25:35;;;;;;;11.48;2.20;;;20.90;77.40;;;;;;5094967;28;20439;-72
2021/07/06 08:28:01;;;;;;;11.90;2.60;;;20.90;77.40;;;;;;5095178;28;20336;-72
2021/07/06 08:30:27;;;;;;;14.95;2.45;;;20.90;77.30;;;;;;5095641;28;20059;-73
2021/07/06 08:32:53;;;;;;;11.68;2.08;;;20.90;77.20;;;;;;5094878;28;20044;-72
2021/07/06 08:35:19;;;;;;;9.52;1.98;;;20.90;77.20;;;;;;5095049;28;20408;-72
2021/07/06 08:37:45;;;;;;;11.05;2.25;;;20.90;77.20;;;;;;5094997;28;20040;-72
2021/07/06 08:40:13;;;;;;;11.43;2.53;;;21.00;77.20;;;;;;5095309;28;20033;-71
2021/07/06 08:42:40;;;;;;;10.90;1.88;;;21.00;77.30;;;;;;5095468;28;20048;-72
2021/07/06 08:45:11;;;;;;;9.80;2.72;;;21.00;77.30;;;;;;5095281;28;20039;-72
2021/07/06 08:47:38;;;;;;;11.75;2.70;;;21.00;77.30;;;;;;5095111;28;20066;-72
2021/07/06 08:50:07;;;;;;;12.68;2.40;;;21.00;77.40;;;;;;5095637;28;20044;-72
2021/07/06 08:52:37;;;;;;;12.73;2.78;;;21.00;77.40;;;;;;5099493;28;20467;-72
2021/07/06 08:55:03;;;;;;;22.27;3.83;;;21.00;77.40;;;;;;5099276;28;20123;-71
2021/07/06 08:57:29;;;;;;;8.50;2.10;;;21.10;77.20;;;;;;5098873;28;20048;-72
2021/07/06 08:59:55;;;;;;;7.22;2.00;;;21.10;76.50;;;;;;5098936;28;20058;-71
2021/07/06 09:02:23;;;;;;;7.40;2.10;;;21.10;75.50;;;;;;5099003;28;20048;-72
2021/07/06 09:04:51;;;;;;;4.60;1.25;;;21.00;75.10;;;;;;5098656;28;20048;-72
2021/07/06 09:07:19;;;;;;;6.63;1.77;;;21.00;74.80;;;;;;5098668;28;20078;-72
2021/07/06 09:09:44;;;;;;;5.95;2.00;;;21.00;74.50;;;;;;5098767;28;20075;-72
2021/07/06 09:12:12;;;;;;;3.70;1.83;;;21.00;73.60;;;;;;5099279;28;20446;-73
2021/07/06 09:14:49;;;;;;;6.18;1.52;;;21.00;73.30;;;;;;5098798;28;20463;-72
2021/07/06 09:17:23;;;;;;;4.97;1.70;;;21.00;73.00;;;;;;5098407;28;20367;-73
2021/07/06 09:19:54;;;;;;;5.35;1.60;;;21.00;73.00;;;;;;5098330;28;20099;-72
2021/07/06 09:22:25;;;;;;;1.75;1.08;;;21.00;73.00;;;;;;5099290;28;20051;-72
2021/07/06 09:24:59;;;;;;;7.47;1.40;;;21.00;73.00;;;;;;5098535;28;20047;-72
2021/07/06 09:27:33;;;;;;;5.13;1.13;;;20.90;72.30;;;;;;5098419;28;20044;-72
2021/07/06 09:30:02;;;;;;;5.40;1.38;;;20.90;72.20;;;;;;5098025;28;20340;-71
2021/07/06 09:32:28;;;;;;;3.95;1.40;;;20.90;72.30;;;;;;5098133;28;20048;-71
2021/07/06 09:34:53;;;;;;;8.05;1.40;;;20.90;72.40;;;;;;5098130;28;20428;-72
2021/07/06 09:37:19;;;;;;;5.68;1.40;;;21.00;72.60;;;;;;5098186;28;20080;-72
2021/07/06 09:39:45;;;;;;;4.10;1.70;;;21.00;72.80;;;;;;5098154;28;20048;-72
2021/07/06 09:42:15;;;;;;;7.57;1.77;;;21.00;72.90;;;;;;5097994;28;20044;-72
2021/07/06 09:44:42;;;;;;;6.25;1.38;;;21.00;73.00;;;;;;5089915;28;20097;-72
2021/07/06 09:47:13;;;;;;;4.50;1.60;;;21.00;73.20;;;;;;5113262;28;20044;-72
2021/07/06 09:49:41;;;;;;;3.60;1.08;;;21.00;73.30;;;;;;5097945;28;20052;-72
2021/07/06 09:52:15;;;;;;;15.25;2.05;;;21.10;73.50;;;;;;5098106;28;20051;-72
2021/07/06 09:54:46;;;;;;;22.95;3.65;;;21.10;73.50;;;;;;5098106;28;20040;-72
2021/07/06 09:57:24;;;;;;;11.93;2.35;;;21.10;73.00;;;;;;5098473;28;20066;-72
2021/07/06 09:59:57;;;;;;;12.32;2.40;;;21.10;72.30;;;;;;5098142;28;20050;-72
2021/07/06 10:02:25;;;;;;;11.73;1.92;;;21.10;72.00;;;;;;5096780;28;20054;-72
2021/07/06 10:04:52;;;;;;;7.05;1.98;;;21.10;71.90;;;;;;5097992;28;20048;-72
2021/07/06 10:07:21;;;;;;;10.82;2.55;;;21.10;72.80;;;;;;5097615;28;20115;-72
2021/07/06 10:09:48;;;;;;;8.50;1.98;;;21.10;72.60;;;;;;5098240;28;20048;-72
2021/07/06 10:12:15;;;;;;;15.70;2.10;;;21.10;72.80;;;;;;5097834;28;20462;-72
2021/07/06 10:14:43;;;;;;;6.35;1.65;;;21.10;72.90;;;;;;5097822;28;20040;-72
2021/07/06 10:17:10;;;;;;;6.45;1.50;;;21.10;73.10;;;;;;5097719;28;20043;-72
2021/07/06 10:19:40;;;;;;;6.32;1.48;;;21.10;73.20;;;;;;5097751;28;20044;-73
2021/07/06 10:22:07;;;;;;;7.53;1.23;;;21.10;73.30;;;;;;5097412;28;20118;-72
2021/07/06 10:24:42;;;;;;;11.05;1.98;;;21.10;73.40;;;;;;5097276;28;20044;-71
2021/07/06 10:27:20;;;;;;;6.85;1.67;;;21.20;73.40;;;;;;5097825;28;20105;-73
2021/07/06 10:29:46;;;;;;;6.88;1.40;;;21.20;73.60;;;;;;5097397;28;20044;-71
2021/07/06 10:32:52;;;;;;;3.95;1.48;;;21.20;73.60;;;;;;5096027;28;20051;-72
2021/07/06 10:35:36;;;;;;;5.10;1.38;;;21.20;73.50;;;;;;5097771;28;20047;-71
2021/07/06 10:38:27;;;;;;;7.00;2.15;;;21.20;73.50;;;;;;5097436;28;20113;-72
2021/07/06 10:40:56;;;;;;;8.90;2.20;;;21.20;73.50;;;;;;5097369;28;20439;-72
2021/07/06 10:43:37;;;;;;;8.55;1.42;;;21.20;73.60;;;;;;5097339;28;20087;-71
2021/07/06 10:46:19;;;;;;;4.57;1.10;;;21.20;73.40;;;;;;5096942;28;20040;-72
2021/07/06 10:49:11;;;;;;;4.38;1.30;;;21.20;73.50;;;;;;5096830;28;20048;-72
2021/07/06 10:51:37;;;;;;;7.72;1.55;;;21.20;73.40;;;;;;5089522;28;20467;-73
2021/07/06 10:54:16;;;;;;;7.20;1.50;;;21.20;73.30;;;;;;5096775;28;20664;-72
2021/07/06 10:56:51;;;;;;;4.60;1.20;;;21.30;73.30;;;;;;5096947;28;20052;-72
2021/07/06 10:59:34;;;;;;;7.60;1.52;;;21.20;73.20;;;;;;5095198;28;20126;-72
2021/07/06 11:02:07;;;;;;;6.97;1.15;;;21.30;73.50;;;;;;5083692;28;20048;-71
2021/07/06 11:04:39;;;;;;;5.95;1.38;;;21.30;73.30;;;;;;5076559;28;20452;-74
2021/07/06 11:07:12;;;;;;;4.75;1.00;;;21.30;73.10;;;;;;5076391;28;20051;-73
2021/07/06 11:09:39;;;;;;;5.60;0.82;;;21.30;70.90;;;;;;5076066;28;20072;-72
2021/07/06 11:12:22;;;;;;;4.93;0.63;;;21.30;68.20;;;;;;5075892;28;20097;-73
2021/07/06 11:14:56;;;;;;;4.50;0.93;;;21.30;67.10;;;;;;5075802;28;20052;-73
2021/07/06 11:17:39;;;;;;;6.07;0.95;;;21.20;66.20;;;;;;5076149;28;20049;-72
2021/07/06 11:20:10;;;;;;;4.03;0.90;;;21.20;65.80;;;;;;5075936;28;20046;-72
2021/07/06 11:22:40;;;;;;;4.15;0.70;;;21.20;66.00;;;;;;5075810;28;20052;-72
2021/07/06 11:25:22;;;;;;;6.68;1.35;;;21.10;66.30;;;;;;5075712;28;20376;-72
2021/07/06 11:28:14;;;;;;;7.20;0.85;;;21.20;67.30;;;;;;5076200;28;20436;-71
2021/07/06 11:30:47;;;;;;;4.47;0.80;;;21.20;67.40;;;;;;5076074;28;20040;-72
2021/07/06 11:33:22;;;;;;;3.55;0.80;;;21.20;67.50;;;;;;5075558;28;20041;-72
2021/07/06 11:35:50;;;;;;;4.45;1.00;;;21.20;67.70;;;;;;5075436;28;20363;-72
2021/07/06 11:38:21;;;;;;;4.63;0.80;;;21.20;67.80;;;;;;5075812;28;20044;-72
2021/07/06 11:40:50;;;;;;;4.85;1.17;;;21.20;68.30;;;;;;5075975;28;20044;-72
2021/07/06 11:43:19;;;;;;;4.97;0.90;;;21.20;68.50;;;;;;5075722;28;20138;-72
2021/07/06 11:46:02;;;;;;;7.78;0.85;;;21.20;68.60;;;;;;5075437;28;20048;-72
2021/07/06 11:48:35;;;;;;;5.65;0.93;;;21.30;68.80;;;;;;5075266;28;20045;-72
2021/07/06 11:51:07;;;;;;;5.35;0.70;;;21.30;68.90;;;;;;5075539;28;20081;-72
2021/07/06 11:53:38;;;;;;;5.28;1.20;;;21.30;69.00;;;;;;5075377;28;20067;-72
2021/07/06 11:56:06;;;;;;;3.60;0.68;;;21.30;69.10;;;;;;5075318;28;20056;-71
2021/07/06 11:58:33;;;;;;;1.45;0.57;;;21.30;69.20;;;;;;5075715;28;20363;-72
2021/07/06 12:01:08;;;;;;;3.05;0.70;;;21.30;69.40;;;;;;5091502;28;20044;-73
2021/07/06 12:03:36;;;;;;;4.35;0.85;;;21.30;69.40;;;;;;5074273;28;20383;-71
2021/07/06 12:06:05;;;;;;;3.00;0.90;;;21.30;69.60;;;;;;5075496;28;20047;-72
2021/07/06 12:08:36;;;;;;;4.43;0.73;;;21.40;69.60;;;;;;5091012;28;20076;-72
2021/07/06 12:11:07;;;;;;;4.97;0.90;;;21.30;69.70;;;;;;5075185;28;20076;-71
2021/07/06 12:13:34;;;;;;;5.05;0.90;;;21.40;69.80;;;;;;5074584;28;20053;-72
2021/07/06 12:16:03;;;;;;;3.58;0.68;;;21.40;69.80;;;;;;5076006;28;20079;-72
2021/07/06 12:18:34;;;;;;;2.20;0.60;;;21.40;69.80;;;;;;5075394;28;20036;-72
2021/07/06 12:21:02;;;;;;;2.83;0.82;;;21.40;69.90;;;;;;5075379;28;20053;-72
2021/07/06 12:23:28;;;;;;;6.57;0.80;;;21.40;69.90;;;;;;5074850;28;20044;-72
2021/07/06 12:25:59;;;;;;;2.75;0.80;;;21.40;69.90;;;;;;5074177;28;20399;-71
2021/07/06 12:28:25;;;;;;;3.47;0.57;;;21.30;69.80;;;;;;5075740;28;20113;-72
2021/07/06 12:31:13;;;;;;;1.67;0.60;;;21.40;69.90;;;;;;5075318;28;20060;-72
2021/07/06 12:33:39;;;;;;;3.10;0.63;;;21.40;69.90;;;;;;5075402;28;20075;-72
2021/07/06 12:36:05;;;;;;;5.60;1.00;;;21.40;69.80;;;;;;5074438;28;20371;-72
2021/07/06 12:38:31;;;;;;;6.65;0.98;;;21.40;69.70;;;;;;5075085;28;20044;-72
2021/07/06 12:40:58;;;;;;;6.72;1.38;;;21.40;69.60;;;;;;5074942;28;20050;-74
2021/07/06 12:43:24;;;;;;;9.55;1.40;;;21.40;69.60;;;;;;5075145;28;20072;-72
2021/07/06 12:45:50;;;;;;;7.90;0.93;;;21.30;69.90;;;;;;5075763;28;20047;-73
2021/07/06 12:48:28;;;;;;;8.60;1.40;;;21.40;70.40;;;;;;5074864;28;20044;-71
2021/07/06 12:51:10;;;;;;;8.13;1.05;;;21.40;70.50;;;;;;5074460;28;20052;-71